sensor_id;sensor_type;location;lat;lon;timestamp;P1;durP1;ratioP1;P2;durP2;ratioP2
22737;SDS011;11536;50.860;4.286;2023-05-07T00:00:33;8.63;;;2.28;;
22737;SDS011;11536;50.860;4.286;2023-05-07T00:02:59;8.30;;;2.13;;
22737;SDS011;11536;50.860;4.286;2023-05-07T00:05:29;3.80;;;1.70;;
22737;SDS011;11536;50.860;4.286;2023-05-07T00:07:55;7.00;;;2.08;;
22737;SDS011;11536;50.860;4.286;2023-05-07T00:10:20;5.55;;;1.98;;
22737;SDS011;11536;50.860;4.286;2023-05-07T00:12:46;7.97;;;2.20;;
22737;SDS011;11536;50.860;4.286;2023-05-07T00:15:12;4.82;;;1.80;;
22737;SDS011;11536;50.860;4.286;2023-05-07T00:17:37;6.90;;;1.80;;
22737;SDS011;11536;50.860;4.286;2023-05-07T00:20:04;7.93;;;2.30;;
22737;SDS011;11536;50.860;4.286;2023-05-07T00:22:30;4.68;;;1.63;;
22737;SDS011;11536;50.860;4.286;2023-05-07T00:24:57;5.13;;;1.63;;
22737;SDS011;11536;50.860;4.286;2023-05-07T00:27:23;7.10;;;1.80;;
22737;SDS011;11536;50.860;4.286;2023-05-07T00:29:49;5.60;;;1.67;;
22737;SDS011;11536;50.860;4.286;2023-05-07T00:32:14;4.68;;;1.83;;
22737;SDS011;11536;50.860;4.286;2023-05-07T00:34:40;4.82;;;1.60;;
22737;SDS011;11536;50.860;4.286;2023-05-07T00:37:06;3.58;;;1.50;;
22737;SDS011;11536;50.860;4.286;2023-05-07T00:39:34;5.97;;;1.90;;
22737;SDS011;11536;50.860;4.286;2023-05-07T00:42:01;5.60;;;2.00;;
22737;SDS011;11536;50.860;4.286;2023-05-07T00:44:27;7.40;;;1.92;;
22737;SDS011;11536;50.860;4.286;2023-05-07T00:46:53;6.25;;;1.85;;
22737;SDS011;11536;50.860;4.286;2023-05-07T00:49:19;4.55;;;1.63;;
22737;SDS011;11536;50.860;4.286;2023-05-07T00:51:45;5.47;;;1.63;;
22737;SDS011;11536;50.860;4.286;2023-05-07T00:54:12;5.78;;;2.30;;
22737;SDS011;11536;50.860;4.286;2023-05-07T00:56:38;5.78;;;1.60;;
22737;SDS011;11536;50.860;4.286;2023-05-07T00:59:05;7.30;;;1.70;;
22737;SDS011;11536;50.860;4.286;2023-05-07T01:01:31;4.97;;;1.58;;
22737;SDS011;11536;50.860;4.286;2023-05-07T01:03:57;5.40;;;1.77;;
22737;SDS011;11536;50.860;4.286;2023-05-07T01:06:23;6.20;;;1.83;;
22737;SDS011;11536;50.860;4.286;2023-05-07T01:08:50;6.80;;;1.65;;
22737;SDS011;11536;50.860;4.286;2023-05-07T01:11:17;6.15;;;1.48;;
22737;SDS011;11536;50.860;4.286;2023-05-07T01:13:45;5.07;;;1.45;;
22737;SDS011;11536;50.860;4.286;2023-05-07T01:16:12;4.63;;;1.52;;
22737;SDS011;11536;50.860;4.286;2023-05-07T01:18:38;6.50;;;1.40;;
22737;SDS011;11536;50.860;4.286;2023-05-07T01:21:04;3.13;;;1.60;;
22737;SDS011;11536;50.860;4.286;2023-05-07T01:23:32;6.05;;;1.33;;
22737;SDS011;11536;50.860;4.286;2023-05-07T01:25:58;6.43;;;1.80;;
22737;SDS011;11536;50.860;4.286;2023-05-07T01:28:24;4.80;;;1.73;;
22737;SDS011;11536;50.860;4.286;2023-05-07T01:30:51;3.97;;;1.63;;
22737;SDS011;11536;50.860;4.286;2023-05-07T01:33:21;6.35;;;2.15;;
22737;SDS011;11536;50.860;4.286;2023-05-07T01:35:48;4.07;;;1.35;;
22737;SDS011;11536;50.860;4.286;2023-05-07T01:38:17;5.60;;;1.50;;
22737;SDS011;11536;50.860;4.286;2023-05-07T01:40:44;4.82;;;1.63;;
22737;SDS011;11536;50.860;4.286;2023-05-07T01:43:10;4.32;;;1.60;;
22737;SDS011;11536;50.860;4.286;2023-05-07T01:45:36;4.13;;;1.55;;
22737;SDS011;11536;50.860;4.286;2023-05-07T01:48:03;8.00;;;1.70;;
22737;SDS011;11536;50.860;4.286;2023-05-07T01:50:29;4.72;;;1.67;;
22737;SDS011;11536;50.860;4.286;2023-05-07T01:52:56;5.97;;;1.50;;
22737;SDS011;11536;50.860;4.286;2023-05-07T01:55:22;4.63;;;1.73;;
22737;SDS011;11536;50.860;4.286;2023-05-07T01:57:48;6.55;;;1.60;;
22737;SDS011;11536;50.860;4.286;2023-05-07T02:00:14;6.03;;;1.45;;
22737;SDS011;11536;50.860;4.286;2023-05-07T02:02:40;4.90;;;1.63;;
22737;SDS011;11536;50.860;4.286;2023-05-07T02:05:06;4.85;;;1.67;;
22737;SDS011;11536;50.860;4.286;2023-05-07T02:07:32;6.47;;;1.63;;
22737;SDS011;11536;50.860;4.286;2023-05-07T02:09:57;4.05;;;1.50;;
22737;SDS011;11536;50.860;4.286;2023-05-07T02:12:23;6.95;;;1.77;;
22737;SDS011;11536;50.860;4.286;2023-05-07T02:14:49;6.05;;;2.40;;
22737;SDS011;11536;50.860;4.286;2023-05-07T02:17:14;5.28;;;1.63;;
22737;SDS011;11536;50.860;4.286;2023-05-07T02:19:40;5.07;;;1.88;;
22737;SDS011;11536;50.860;4.286;2023-05-07T02:22:06;5.68;;;1.63;;
22737;SDS011;11536;50.860;4.286;2023-05-07T02:24:32;7.18;;;2.05;;
22737;SDS011;11536;50.860;4.286;2023-05-07T02:26:58;4.63;;;1.50;;
22737;SDS011;11536;50.860;4.286;2023-05-07T02:29:23;6.53;;;1.42;;
22737;SDS011;11536;50.860;4.286;2023-05-07T02:31:49;6.07;;;1.63;;
22737;SDS011;11536;50.860;4.286;2023-05-07T02:34:18;7.15;;;1.70;;
22737;SDS011;11536;50.860;4.286;2023-05-07T02:36:44;6.78;;;1.95;;
22737;SDS011;11536;50.860;4.286;2023-05-07T02:39:10;6.13;;;1.58;;
22737;SDS011;11536;50.860;4.286;2023-05-07T02:41:36;5.90;;;1.60;;
22737;SDS011;11536;50.860;4.286;2023-05-07T02:44:02;7.18;;;1.83;;
22737;SDS011;11536;50.860;4.286;2023-05-07T02:46:28;4.43;;;1.65;;
22737;SDS011;11536;50.860;4.286;2023-05-07T02:48:53;5.25;;;1.73;;
22737;SDS011;11536;50.860;4.286;2023-05-07T02:51:20;6.55;;;1.58;;
22737;SDS011;11536;50.860;4.286;2023-05-07T02:53:46;6.00;;;1.77;;
22737;SDS011;11536;50.860;4.286;2023-05-07T02:56:12;4.35;;;1.55;;
22737;SDS011;11536;50.860;4.286;2023-05-07T02:58:38;4.57;;;1.73;;
22737;SDS011;11536;50.860;4.286;2023-05-07T03:01:09;6.15;;;1.95;;
22737;SDS011;11536;50.860;4.286;2023-05-07T03:03:35;6.80;;;2.00;;
22737;SDS011;11536;50.860;4.286;2023-05-07T03:06:01;4.85;;;1.60;;
22737;SDS011;11536;50.860;4.286;2023-05-07T03:08:27;7.10;;;1.77;;
22737;SDS011;11536;50.860;4.286;2023-05-07T03:10:52;3.60;;;1.73;;
22737;SDS011;11536;50.860;4.286;2023-05-07T03:13:18;5.95;;;1.77;;
22737;SDS011;11536;50.860;4.286;2023-05-07T03:15:44;4.57;;;1.90;;
22737;SDS011;11536;50.860;4.286;2023-05-07T03:18:10;8.00;;;1.90;;
22737;SDS011;11536;50.860;4.286;2023-05-07T03:20:35;5.30;;;1.98;;
22737;SDS011;11536;50.860;4.286;2023-05-07T03:23:01;5.50;;;1.80;;
22737;SDS011;11536;50.860;4.286;2023-05-07T03:25:28;4.22;;;1.58;;
22737;SDS011;11536;50.860;4.286;2023-05-07T03:27:55;7.60;;;1.90;;
22737;SDS011;11536;50.860;4.286;2023-05-07T03:30:21;5.28;;;1.55;;
22737;SDS011;11536;50.860;4.286;2023-05-07T03:32:46;2.90;;;1.30;;
22737;SDS011;11536;50.860;4.286;2023-05-07T03:35:12;6.80;;;1.75;;
22737;SDS011;11536;50.860;4.286;2023-05-07T03:37:38;6.93;;;2.00;;
22737;SDS011;11536;50.860;4.286;2023-05-07T03:40:04;5.78;;;1.90;;
22737;SDS011;11536;50.860;4.286;2023-05-07T03:42:30;5.25;;;2.10;;
22737;SDS011;11536;50.860;4.286;2023-05-07T03:44:56;4.90;;;1.80;;
22737;SDS011;11536;50.860;4.286;2023-05-07T03:47:22;6.85;;;2.17;;
22737;SDS011;11536;50.860;4.286;2023-05-07T03:49:47;4.72;;;1.95;;
22737;SDS011;11536;50.860;4.286;2023-05-07T03:52:14;5.30;;;1.75;;
22737;SDS011;11536;50.860;4.286;2023-05-07T03:54:40;6.10;;;1.73;;
22737;SDS011;11536;50.860;4.286;2023-05-07T03:57:06;5.13;;;1.73;;
22737;SDS011;11536;50.860;4.286;2023-05-07T03:59:31;7.10;;;2.10;;
22737;SDS011;11536;50.860;4.286;2023-05-07T04:01:57;8.15;;;2.08;;
22737;SDS011;11536;50.860;4.286;2023-05-07T04:04:23;4.65;;;1.98;;
22737;SDS011;11536;50.860;4.286;2023-05-07T04:06:49;4.65;;;1.98;;
22737;SDS011;11536;50.860;4.286;2023-05-07T04:09:14;5.95;;;1.90;;
22737;SDS011;11536;50.860;4.286;2023-05-07T04:11:40;6.72;;;2.05;;
22737;SDS011;11536;50.860;4.286;2023-05-07T04:14:06;4.65;;;1.80;;
22737;SDS011;11536;50.860;4.286;2023-05-07T04:16:31;5.75;;;1.92;;
22737;SDS011;11536;50.860;4.286;2023-05-07T04:18:57;5.28;;;1.80;;
22737;SDS011;11536;50.860;4.286;2023-05-07T04:21:22;4.63;;;1.70;;
22737;SDS011;11536;50.860;4.286;2023-05-07T04:23:48;5.10;;;1.83;;
22737;SDS011;11536;50.860;4.286;2023-05-07T04:26:14;5.03;;;1.63;;
22737;SDS011;11536;50.860;4.286;2023-05-07T04:28:40;7.10;;;1.98;;
22737;SDS011;11536;50.860;4.286;2023-05-07T04:31:06;6.78;;;1.83;;
22737;SDS011;11536;50.860;4.286;2023-05-07T04:33:32;5.20;;;1.92;;
22737;SDS011;11536;50.860;4.286;2023-05-07T04:35:58;7.90;;;2.08;;
22737;SDS011;11536;50.860;4.286;2023-05-07T04:38:30;6.60;;;1.90;;
22737;SDS011;11536;50.860;4.286;2023-05-07T04:40:57;4.20;;;1.70;;
22737;SDS011;11536;50.860;4.286;2023-05-07T04:43:23;6.15;;;1.75;;
22737;SDS011;11536;50.860;4.286;2023-05-07T04:45:51;7.78;;;1.67;;
22737;SDS011;11536;50.860;4.286;2023-05-07T04:48:17;5.72;;;1.80;;
22737;SDS011;11536;50.860;4.286;2023-05-07T04:50:48;5.10;;;2.20;;
22737;SDS011;11536;50.860;4.286;2023-05-07T04:53:14;6.13;;;2.10;;
22737;SDS011;11536;50.860;4.286;2023-05-07T04:55:40;6.85;;;2.10;;
22737;SDS011;11536;50.860;4.286;2023-05-07T04:58:06;7.80;;;2.08;;
22737;SDS011;11536;50.860;4.286;2023-05-07T05:00:32;5.85;;;1.70;;
22737;SDS011;11536;50.860;4.286;2023-05-07T05:02:58;6.65;;;2.38;;
22737;SDS011;11536;50.860;4.286;2023-05-07T05:05:24;4.95;;;1.92;;
22737;SDS011;11536;50.860;4.286;2023-05-07T05:07:50;5.63;;;1.92;;
22737;SDS011;11536;50.860;4.286;2023-05-07T05:10:16;5.10;;;1.92;;
22737;SDS011;11536;50.860;4.286;2023-05-07T05:12:42;5.65;;;2.00;;
22737;SDS011;11536;50.860;4.286;2023-05-07T05:15:08;6.13;;;2.22;;
22737;SDS011;11536;50.860;4.286;2023-05-07T05:17:35;4.07;;;1.85;;
22737;SDS011;11536;50.860;4.286;2023-05-07T05:20:01;6.53;;;2.50;;
22737;SDS011;11536;50.860;4.286;2023-05-07T05:22:27;6.10;;;1.90;;
22737;SDS011;11536;50.860;4.286;2023-05-07T05:24:56;5.00;;;2.00;;
22737;SDS011;11536;50.860;4.286;2023-05-07T05:27:21;5.00;;;2.03;;
22737;SDS011;11536;50.860;4.286;2023-05-07T05:29:47;7.20;;;2.28;;
22737;SDS011;11536;50.860;4.286;2023-05-07T05:32:12;5.13;;;2.10;;
22737;SDS011;11536;50.860;4.286;2023-05-07T05:34:38;5.03;;;2.15;;
22737;SDS011;11536;50.860;4.286;2023-05-07T05:37:04;6.53;;;2.03;;
22737;SDS011;11536;50.860;4.286;2023-05-07T05:39:29;6.15;;;2.08;;
22737;SDS011;11536;50.860;4.286;2023-05-07T05:41:55;8.60;;;2.38;;
22737;SDS011;11536;50.860;4.286;2023-05-07T05:44:21;7.53;;;2.47;;
22737;SDS011;11536;50.860;4.286;2023-05-07T05:46:46;4.53;;;2.08;;
22737;SDS011;11536;50.860;4.286;2023-05-07T05:49:14;7.72;;;2.33;;
22737;SDS011;11536;50.860;4.286;2023-05-07T05:51:40;6.25;;;1.85;;
22737;SDS011;11536;50.860;4.286;2023-05-07T05:54:06;5.50;;;1.90;;
22737;SDS011;11536;50.860;4.286;2023-05-07T05:56:32;6.03;;;2.13;;
22737;SDS011;11536;50.860;4.286;2023-05-07T05:58:58;7.15;;;2.20;;
22737;SDS011;11536;50.860;4.286;2023-05-07T06:01:23;8.45;;;2.25;;
22737;SDS011;11536;50.860;4.286;2023-05-07T06:03:49;7.47;;;2.58;;
22737;SDS011;11536;50.860;4.286;2023-05-07T06:06:15;6.40;;;2.10;;
22737;SDS011;11536;50.860;4.286;2023-05-07T06:08:40;7.43;;;2.15;;
22737;SDS011;11536;50.860;4.286;2023-05-07T06:11:06;7.30;;;2.65;;
22737;SDS011;11536;50.860;4.286;2023-05-07T06:13:32;11.32;;;2.63;;
22737;SDS011;11536;50.860;4.286;2023-05-07T06:15:58;10.02;;;2.50;;
22737;SDS011;11536;50.860;4.286;2023-05-07T06:18:23;6.68;;;2.42;;
22737;SDS011;11536;50.860;4.286;2023-05-07T06:20:50;9.68;;;2.60;;
22737;SDS011;11536;50.860;4.286;2023-05-07T06:23:16;6.40;;;2.40;;
22737;SDS011;11536;50.860;4.286;2023-05-07T06:25:42;8.82;;;2.30;;
22737;SDS011;11536;50.860;4.286;2023-05-07T06:28:10;8.27;;;2.60;;
22737;SDS011;11536;50.860;4.286;2023-05-07T06:30:36;8.10;;;2.13;;
22737;SDS011;11536;50.860;4.286;2023-05-07T06:33:02;7.68;;;2.22;;
22737;SDS011;11536;50.860;4.286;2023-05-07T06:35:27;8.52;;;2.75;;
22737;SDS011;11536;50.860;4.286;2023-05-07T06:37:53;6.68;;;2.50;;
22737;SDS011;11536;50.860;4.286;2023-05-07T06:40:18;9.10;;;2.75;;
22737;SDS011;11536;50.860;4.286;2023-05-07T06:42:44;6.53;;;2.50;;
22737;SDS011;11536;50.860;4.286;2023-05-07T06:45:10;6.18;;;2.67;;
22737;SDS011;11536;50.860;4.286;2023-05-07T06:47:36;9.25;;;2.92;;
22737;SDS011;11536;50.860;4.286;2023-05-07T06:50:01;9.27;;;3.30;;
22737;SDS011;11536;50.860;4.286;2023-05-07T06:52:27;7.75;;;2.67;;
22737;SDS011;11536;50.860;4.286;2023-05-07T06:54:52;8.48;;;3.00;;
22737;SDS011;11536;50.860;4.286;2023-05-07T06:57:18;6.65;;;2.95;;
22737;SDS011;11536;50.860;4.286;2023-05-07T06:59:44;7.35;;;2.70;;
22737;SDS011;11536;50.860;4.286;2023-05-07T07:02:09;6.55;;;2.80;;
22737;SDS011;11536;50.860;4.286;2023-05-07T07:04:35;9.57;;;3.78;;
22737;SDS011;11536;50.860;4.286;2023-05-07T07:07:00;9.95;;;3.08;;
22737;SDS011;11536;50.860;4.286;2023-05-07T07:09:26;5.18;;;2.53;;
22737;SDS011;11536;50.860;4.286;2023-05-07T07:11:52;9.15;;;2.80;;
22737;SDS011;11536;50.860;4.286;2023-05-07T07:14:17;8.63;;;3.30;;
22737;SDS011;11536;50.860;4.286;2023-05-07T07:16:43;8.35;;;2.65;;
22737;SDS011;11536;50.860;4.286;2023-05-07T07:19:09;6.88;;;2.38;;
22737;SDS011;11536;50.860;4.286;2023-05-07T07:21:35;9.98;;;3.17;;
22737;SDS011;11536;50.860;4.286;2023-05-07T07:24:00;6.78;;;2.60;;
22737;SDS011;11536;50.860;4.286;2023-05-07T07:26:26;8.63;;;3.08;;
22737;SDS011;11536;50.860;4.286;2023-05-07T07:28:51;7.78;;;2.83;;
22737;SDS011;11536;50.860;4.286;2023-05-07T07:31:17;6.45;;;2.70;;
22737;SDS011;11536;50.860;4.286;2023-05-07T07:33:43;9.25;;;2.80;;
22737;SDS011;11536;50.860;4.286;2023-05-07T07:36:09;8.20;;;2.70;;
22737;SDS011;11536;50.860;4.286;2023-05-07T07:38:34;5.85;;;2.63;;
22737;SDS011;11536;50.860;4.286;2023-05-07T07:41:00;4.60;;;2.33;;
22737;SDS011;11536;50.860;4.286;2023-05-07T07:43:27;7.35;;;2.88;;
22737;SDS011;11536;50.860;4.286;2023-05-07T07:45:53;6.13;;;2.97;;
22737;SDS011;11536;50.860;4.286;2023-05-07T07:48:19;8.05;;;2.58;;
22737;SDS011;11536;50.860;4.286;2023-05-07T07:50:44;5.55;;;2.63;;
22737;SDS011;11536;50.860;4.286;2023-05-07T07:53:10;7.07;;;2.63;;
22737;SDS011;11536;50.860;4.286;2023-05-07T07:55:39;6.15;;;2.30;;
22737;SDS011;11536;50.860;4.286;2023-05-07T07:58:05;7.00;;;2.70;;
22737;SDS011;11536;50.860;4.286;2023-05-07T08:00:31;8.52;;;3.00;;
22737;SDS011;11536;50.860;4.286;2023-05-07T08:02:56;6.80;;;2.80;;
22737;SDS011;11536;50.860;4.286;2023-05-07T08:05:22;6.38;;;2.30;;
22737;SDS011;11536;50.860;4.286;2023-05-07T08:07:48;6.57;;;2.63;;
22737;SDS011;11536;50.860;4.286;2023-05-07T08:10:18;7.25;;;2.38;;
22737;SDS011;11536;50.860;4.286;2023-05-07T08:12:49;7.05;;;2.40;;
22737;SDS011;11536;50.860;4.286;2023-05-07T08:15:16;9.30;;;2.90;;
22737;SDS011;11536;50.860;4.286;2023-05-07T08:17:42;7.32;;;2.17;;
22737;SDS011;11536;50.860;4.286;2023-05-07T08:20:08;6.80;;;2.25;;
22737;SDS011;11536;50.860;4.286;2023-05-07T08:22:34;6.82;;;2.40;;
22737;SDS011;11536;50.860;4.286;2023-05-07T08:25:00;7.47;;;2.53;;
22737;SDS011;11536;50.860;4.286;2023-05-07T08:27:26;7.88;;;2.47;;
22737;SDS011;11536;50.860;4.286;2023-05-07T08:29:53;6.30;;;2.47;;
22737;SDS011;11536;50.860;4.286;2023-05-07T08:32:19;8.70;;;2.28;;
22737;SDS011;11536;50.860;4.286;2023-05-07T08:34:45;7.32;;;2.45;;
22737;SDS011;11536;50.860;4.286;2023-05-07T08:37:11;6.00;;;2.50;;
22737;SDS011;11536;50.860;4.286;2023-05-07T08:39:37;8.38;;;2.75;;
22737;SDS011;11536;50.860;4.286;2023-05-07T08:42:03;5.38;;;2.35;;
22737;SDS011;11536;50.860;4.286;2023-05-07T08:44:32;6.25;;;2.65;;
22737;SDS011;11536;50.860;4.286;2023-05-07T08:46:59;6.50;;;2.67;;
22737;SDS011;11536;50.860;4.286;2023-05-07T08:49:27;4.18;;;2.00;;
22737;SDS011;11536;50.860;4.286;2023-05-07T08:51:53;6.75;;;2.40;;
22737;SDS011;11536;50.860;4.286;2023-05-07T08:54:18;7.60;;;2.53;;
22737;SDS011;11536;50.860;4.286;2023-05-07T08:56:46;6.70;;;2.38;;
22737;SDS011;11536;50.860;4.286;2023-05-07T08:59:11;6.47;;;2.60;;
22737;SDS011;11536;50.860;4.286;2023-05-07T09:01:37;4.93;;;2.35;;
22737;SDS011;11536;50.860;4.286;2023-05-07T09:04:03;6.57;;;2.47;;
22737;SDS011;11536;50.860;4.286;2023-05-07T09:06:30;5.57;;;2.40;;
22737;SDS011;11536;50.860;4.286;2023-05-07T09:08:58;6.70;;;2.13;;
22737;SDS011;11536;50.860;4.286;2023-05-07T09:11:30;5.40;;;1.85;;
22737;SDS011;11536;50.860;4.286;2023-05-07T09:13:56;3.35;;;1.45;;
22737;SDS011;11536;50.860;4.286;2023-05-07T09:16:24;3.53;;;1.70;;
22737;SDS011;11536;50.860;4.286;2023-05-07T09:18:51;4.82;;;1.60;;
22737;SDS011;11536;50.860;4.286;2023-05-07T09:21:18;4.70;;;1.50;;
22737;SDS011;11536;50.860;4.286;2023-05-07T09:23:45;3.53;;;1.52;;
22737;SDS011;11536;50.860;4.286;2023-05-07T09:26:15;4.30;;;1.52;;
22737;SDS011;11536;50.860;4.286;2023-05-07T09:28:41;5.93;;;1.77;;
22737;SDS011;11536;50.860;4.286;2023-05-07T09:31:08;10.35;;;2.10;;
22737;SDS011;11536;50.860;4.286;2023-05-07T09:33:34;6.10;;;1.85;;
22737;SDS011;11536;50.860;4.286;2023-05-07T09:36:03;5.35;;;2.20;;
22737;SDS011;11536;50.860;4.286;2023-05-07T09:38:30;3.97;;;1.90;;
22737;SDS011;11536;50.860;4.286;2023-05-07T09:41:07;7.03;;;1.90;;
22737;SDS011;11536;50.860;4.286;2023-05-07T09:43:35;6.65;;;1.92;;
22737;SDS011;11536;50.860;4.286;2023-05-07T09:46:14;4.63;;;1.63;;
22737;SDS011;11536;50.860;4.286;2023-05-07T09:48:42;7.25;;;2.13;;
22737;SDS011;11536;50.860;4.286;2023-05-07T09:51:51;5.82;;;2.33;;
22737;SDS011;11536;50.860;4.286;2023-05-07T09:54:03;4.28;;;1.75;;
22737;SDS011;11536;50.860;4.286;2023-05-07T09:56:29;5.57;;;2.25;;
22737;SDS011;11536;50.860;4.286;2023-05-07T09:58:57;6.70;;;2.00;;
22737;SDS011;11536;50.860;4.286;2023-05-07T10:01:25;6.22;;;2.22;;
22737;SDS011;11536;50.860;4.286;2023-05-07T10:03:53;6.25;;;2.47;;
22737;SDS011;11536;50.860;4.286;2023-05-07T10:06:20;5.30;;;2.20;;
22737;SDS011;11536;50.860;4.286;2023-05-07T10:08:46;7.22;;;2.95;;
22737;SDS011;11536;50.860;4.286;2023-05-07T10:11:13;5.72;;;2.63;;
22737;SDS011;11536;50.860;4.286;2023-05-07T10:13:41;6.60;;;2.72;;
22737;SDS011;11536;50.860;4.286;2023-05-07T10:16:07;6.30;;;2.50;;
22737;SDS011;11536;50.860;4.286;2023-05-07T10:18:33;5.05;;;2.13;;
22737;SDS011;11536;50.860;4.286;2023-05-07T10:21:02;6.40;;;1.95;;
22737;SDS011;11536;50.860;4.286;2023-05-07T10:23:27;6.75;;;2.40;;
22737;SDS011;11536;50.860;4.286;2023-05-07T10:25:55;7.45;;;2.35;;
22737;SDS011;11536;50.860;4.286;2023-05-07T10:28:23;5.68;;;2.13;;
22737;SDS011;11536;50.860;4.286;2023-05-07T10:31:08;6.43;;;2.33;;
22737;SDS011;11536;50.860;4.286;2023-05-07T10:33:36;6.18;;;2.13;;
22737;SDS011;11536;50.860;4.286;2023-05-07T10:36:04;6.57;;;2.30;;
22737;SDS011;11536;50.860;4.286;2023-05-07T10:38:32;7.75;;;2.38;;
22737;SDS011;11536;50.860;4.286;2023-05-07T10:40:58;5.50;;;2.35;;
22737;SDS011;11536;50.860;4.286;2023-05-07T10:43:24;6.38;;;2.60;;
22737;SDS011;11536;50.860;4.286;2023-05-07T10:46:14;6.13;;;1.77;;
22737;SDS011;11536;50.860;4.286;2023-05-07T10:51:27;5.35;;;1.85;;
22737;SDS011;11536;50.860;4.286;2023-05-07T10:56:42;5.63;;;2.13;;
22737;SDS011;11536;50.860;4.286;2023-05-07T11:01:50;5.55;;;2.13;;
22737;SDS011;11536;50.860;4.286;2023-05-07T11:04:16;6.55;;;2.20;;
22737;SDS011;11536;50.860;4.286;2023-05-07T11:26:06;4.45;;;1.85;;
22737;SDS011;11536;50.860;4.286;2023-05-07T11:28:37;6.85;;;2.20;;
22737;SDS011;11536;50.860;4.286;2023-05-07T11:31:03;5.95;;;1.92;;
22737;SDS011;11536;50.860;4.286;2023-05-07T11:33:32;5.07;;;1.90;;
22737;SDS011;11536;50.860;4.286;2023-05-07T11:36:02;3.83;;;1.75;;
22737;SDS011;11536;50.860;4.286;2023-05-07T11:38:38;4.35;;;2.28;;
22737;SDS011;11536;50.860;4.286;2023-05-07T11:41:03;6.68;;;2.13;;
22737;SDS011;11536;50.860;4.286;2023-05-07T11:43:32;4.70;;;2.00;;
22737;SDS011;11536;50.860;4.286;2023-05-07T11:46:10;8.00;;;2.13;;
22737;SDS011;11536;50.860;4.286;2023-05-07T11:48:37;5.60;;;2.25;;
22737;SDS011;11536;50.860;4.286;2023-05-07T11:51:04;5.10;;;2.05;;
22737;SDS011;11536;50.860;4.286;2023-05-07T11:53:37;6.22;;;2.03;;
22737;SDS011;11536;50.860;4.286;2023-05-07T11:56:07;4.82;;;1.88;;
22737;SDS011;11536;50.860;4.286;2023-05-07T11:58:37;4.85;;;1.85;;
22737;SDS011;11536;50.860;4.286;2023-05-07T12:01:03;5.00;;;2.22;;
22737;SDS011;11536;50.860;4.286;2023-05-07T12:03:29;5.88;;;1.85;;
22737;SDS011;11536;50.860;4.286;2023-05-07T12:05:55;3.67;;;2.03;;
22737;SDS011;11536;50.860;4.286;2023-05-07T12:08:21;4.60;;;2.03;;
22737;SDS011;11536;50.860;4.286;2023-05-07T12:10:50;5.78;;;2.00;;
22737;SDS011;11536;50.860;4.286;2023-05-07T12:13:21;3.55;;;1.60;;
22737;SDS011;11536;50.860;4.286;2023-05-07T12:15:51;6.45;;;2.17;;
22737;SDS011;11536;50.860;4.286;2023-05-07T12:18:17;4.20;;;1.70;;
22737;SDS011;11536;50.860;4.286;2023-05-07T12:20:44;4.10;;;2.00;;
22737;SDS011;11536;50.860;4.286;2023-05-07T12:23:10;4.90;;;2.20;;
22737;SDS011;11536;50.860;4.286;2023-05-07T12:25:37;5.75;;;2.33;;
22737;SDS011;11536;50.860;4.286;2023-05-07T12:28:04;5.47;;;2.10;;
22737;SDS011;11536;50.860;4.286;2023-05-07T12:30:39;5.03;;;2.10;;
22737;SDS011;11536;50.860;4.286;2023-05-07T12:33:05;4.75;;;2.38;;
22737;SDS011;11536;50.860;4.286;2023-05-07T12:35:32;4.32;;;2.15;;
22737;SDS011;11536;50.860;4.286;2023-05-07T12:38:02;5.65;;;2.63;;
22737;SDS011;11536;50.860;4.286;2023-05-07T12:43:27;6.28;;;2.40;;
22737;SDS011;11536;50.860;4.286;2023-05-07T12:45:54;6.53;;;3.17;;
22737;SDS011;11536;50.860;4.286;2023-05-07T12:48:22;5.45;;;2.83;;
22737;SDS011;11536;50.860;4.286;2023-05-07T12:50:54;6.88;;;2.95;;
22737;SDS011;11536;50.860;4.286;2023-05-07T12:53:22;5.85;;;3.40;;
22737;SDS011;11536;50.860;4.286;2023-05-07T12:55:50;7.25;;;3.78;;
22737;SDS011;11536;50.860;4.286;2023-05-07T12:58:28;7.13;;;3.80;;
22737;SDS011;11536;50.860;4.286;2023-05-07T13:00:56;7.40;;;3.63;;
22737;SDS011;11536;50.860;4.286;2023-05-07T13:03:33;6.32;;;3.55;;
22737;SDS011;11536;50.860;4.286;2023-05-07T13:06:01;8.25;;;3.85;;
22737;SDS011;11536;50.860;4.286;2023-05-07T13:08:31;7.75;;;4.00;;
22737;SDS011;11536;50.860;4.286;2023-05-07T13:10:59;7.85;;;3.75;;
22737;SDS011;11536;50.860;4.286;2023-05-07T13:13:29;10.13;;;3.95;;
22737;SDS011;11536;50.860;4.286;2023-05-07T13:15:56;7.60;;;4.15;;
22737;SDS011;11536;50.860;4.286;2023-05-07T13:18:21;7.70;;;4.13;;
22737;SDS011;11536;50.860;4.286;2023-05-07T13:20:47;8.52;;;4.88;;
22737;SDS011;11536;50.860;4.286;2023-05-07T13:23:13;9.13;;;4.47;;
22737;SDS011;11536;50.860;4.286;2023-05-07T13:25:38;7.78;;;4.38;;
22737;SDS011;11536;50.860;4.286;2023-05-07T13:28:05;8.02;;;4.15;;
22737;SDS011;11536;50.860;4.286;2023-05-07T13:30:32;11.63;;;5.00;;
22737;SDS011;11536;50.860;4.286;2023-05-07T13:33:00;7.75;;;4.32;;
22737;SDS011;11536;50.860;4.286;2023-05-07T13:35:25;8.75;;;4.80;;
22737;SDS011;11536;50.860;4.286;2023-05-07T13:37:51;9.52;;;5.00;;
22737;SDS011;11536;50.860;4.286;2023-05-07T13:40:20;9.50;;;5.70;;
22737;SDS011;11536;50.860;4.286;2023-05-07T13:42:47;8.80;;;5.32;;
22737;SDS011;11536;50.860;4.286;2023-05-07T13:45:13;8.50;;;4.80;;
22737;SDS011;11536;50.860;4.286;2023-05-07T13:47:39;10.23;;;5.75;;
22737;SDS011;11536;50.860;4.286;2023-05-07T13:50:09;11.77;;;5.47;;
22737;SDS011;11536;50.860;4.286;2023-05-07T13:52:36;10.40;;;5.70;;
22737;SDS011;11536;50.860;4.286;2023-05-07T13:55:03;9.80;;;5.43;;
22737;SDS011;11536;50.860;4.286;2023-05-07T13:57:29;10.68;;;6.07;;
22737;SDS011;11536;50.860;4.286;2023-05-07T13:59:54;10.88;;;6.07;;
22737;SDS011;11536;50.860;4.286;2023-05-07T14:02:20;9.05;;;5.53;;
22737;SDS011;11536;50.860;4.286;2023-05-07T14:04:46;9.95;;;5.45;;
22737;SDS011;11536;50.860;4.286;2023-05-07T14:07:11;9.55;;;5.70;;
22737;SDS011;11536;50.860;4.286;2023-05-07T14:09:37;8.75;;;5.68;;
22737;SDS011;11536;50.860;4.286;2023-05-07T14:12:03;9.80;;;5.68;;
22737;SDS011;11536;50.860;4.286;2023-05-07T14:14:28;9.70;;;6.30;;
22737;SDS011;11536;50.860;4.286;2023-05-07T14:16:54;10.77;;;6.18;;
22737;SDS011;11536;50.860;4.286;2023-05-07T14:19:20;11.18;;;6.00;;
22737;SDS011;11536;50.860;4.286;2023-05-07T14:21:47;10.63;;;6.20;;
22737;SDS011;11536;50.860;4.286;2023-05-07T14:24:13;11.82;;;6.78;;
22737;SDS011;11536;50.860;4.286;2023-05-07T14:26:39;9.65;;;5.63;;
22737;SDS011;11536;50.860;4.286;2023-05-07T14:29:05;11.65;;;6.43;;
22737;SDS011;11536;50.860;4.286;2023-05-07T14:31:31;10.70;;;6.63;;
22737;SDS011;11536;50.860;4.286;2023-05-07T14:33:57;10.75;;;6.15;;
22737;SDS011;11536;50.860;4.286;2023-05-07T14:36:23;12.32;;;7.05;;
22737;SDS011;11536;50.860;4.286;2023-05-07T14:38:51;10.82;;;6.40;;
22737;SDS011;11536;50.860;4.286;2023-05-07T14:41:19;11.60;;;6.38;;
22737;SDS011;11536;50.860;4.286;2023-05-07T14:43:46;11.32;;;6.28;;
22737;SDS011;11536;50.860;4.286;2023-05-07T14:46:17;11.13;;;6.30;;
22737;SDS011;11536;50.860;4.286;2023-05-07T14:48:46;10.93;;;6.43;;
22737;SDS011;11536;50.860;4.286;2023-05-07T14:51:12;11.15;;;6.10;;
22737;SDS011;11536;50.860;4.286;2023-05-07T14:53:38;11.50;;;7.10;;
22737;SDS011;11536;50.860;4.286;2023-05-07T14:56:05;9.73;;;5.68;;
22737;SDS011;11536;50.860;4.286;2023-05-07T14:58:31;11.20;;;5.82;;
22737;SDS011;11536;50.860;4.286;2023-05-07T15:00:57;10.75;;;5.90;;
22737;SDS011;11536;50.860;4.286;2023-05-07T15:03:24;10.32;;;5.18;;
22737;SDS011;11536;50.860;4.286;2023-05-07T15:05:50;8.75;;;5.03;;
22737;SDS011;11536;50.860;4.286;2023-05-07T15:08:18;9.60;;;5.47;;
22737;SDS011;11536;50.860;4.286;2023-05-07T15:10:44;9.63;;;5.00;;
22737;SDS011;11536;50.860;4.286;2023-05-07T15:13:11;9.00;;;4.70;;